Time;durP1;ratioP1;P1;durP2;ratioP2;P2;SDS_P1;SDS_P2;PMS_P1;PMS_P2;Temp;Humidity;BMP_temperature;BMP_pressure;BME280_temperature;BME280_humidity;BME280_pressure;Samples;Min_cycle;Max_cycle;Signal;HPM_P1;HPM_P2
2021/01/25 00:00:19;;;;;;;0.52;0.20;;;6.20;47.50;;;;;;4974447;28;20457;-82
2021/01/25 00:02:45;;;;;;;0.53;0.20;;;6.10;48.40;;;;;;4976693;28;20414;-82
2021/01/25 00:05:12;;;;;;;0.20;0.10;;;6.00;48.50;;;;;;4988078;28;20505;-82
2021/01/25 00:07:39;;;;;;;1.00;0.20;;;6.00;48.80;;;;;;4976364;28;20808;-82
2021/01/25 00:10:06;;;;;;;0.80;0.15;;;6.10;49.40;;;;;;4978306;28;20420;-83
2021/01/25 00:12:32;;;;;;;0.43;0.10;;;5.90;49.50;;;;;;4981611;28;20411;-82
2021/01/25 00:14:58;;;;;;;0.32;0.20;;;6.00;49.50;;;;;;4976693;28;20397;-82
2021/01/25 00:17:25;;;;;;;0.38;0.10;;;5.90;49.80;;;;;;4975549;28;20823;-82
2021/01/25 00:19:51;;;;;;;0.10;0.10;;;5.80;50.80;;;;;;4976368;28;20412;-82
2021/01/25 00:22:17;;;;;;;0.43;0.20;;;5.80;50.00;;;;;;4990162;28;20413;-82
2021/01/25 00:24:43;;;;;;;0.85;0.15;;;5.90;49.80;;;;;;4987418;28;20400;-82
2021/01/25 00:27:09;;;;;;;0.70;0.20;;;5.80;51.10;;;;;;4984174;28;20764;-82
2021/01/25 00:29:35;;;;;;;0.20;0.20;;;5.90;50.70;;;;;;4973580;28;20495;-81
2021/01/25 00:32:01;;;;;;;0.50;0.10;;;6.00;50.80;;;;;;4975140;28;20396;-82
2021/01/25 00:34:28;;;;;;;0.17;0.10;;;5.80;51.80;;;;;;4984705;28;20410;-80
2021/01/25 00:36:54;;;;;;;1.33;0.20;;;5.90;51.30;;;;;;4974304;28;20436;-80
2021/01/25 00:39:20;;;;;;;0.70;0.10;;;5.80;51.70;;;;;;4974377;28;20400;-82
2021/01/25 00:41:46;;;;;;;0.30;0.10;;;5.70;52.00;;;;;;4975478;28;20757;-82
2021/01/25 00:44:12;;;;;;;0.50;0.10;;;5.60;52.60;;;;;;4973932;28;20489;-81
2021/01/25 00:46:38;;;;;;;0.10;0.10;;;5.70;52.20;;;;;;5000542;28;20404;-82
2021/01/25 00:49:04;;;;;;;0.63;0.10;;;5.80;52.40;;;;;;5002661;28;20420;-83
2021/01/25 00:51:30;;;;;;;0.47;0.10;;;5.90;52.10;;;;;;4989887;28;20911;-83
2021/01/25 00:53:56;;;;;;;0.27;0.10;;;5.80;53.00;;;;;;4982483;28;20413;-82
2021/01/25 00:56:23;;;;;;;1.00;0.10;;;5.80;53.20;;;;;;4973697;28;20416;-82
2021/01/25 00:58:48;;;;;;;1.67;0.30;;;5.90;52.50;;;;;;4975895;28;20495;-81
2021/01/25 01:01:14;;;;;;;0.73;0.10;;;5.70;53.50;;;;;;4973700;28;20488;-82
2021/01/25 01:03:40;;;;;;;0.30;0.10;;;5.70;53.70;;;;;;4973558;28;20416;-82
2021/01/25 01:06:06;;;;;;;0.20;0.10;;;5.80;53.90;;;;;;4976668;28;20424;-82
2021/01/25 01:08:33;;;;;;;0.90;0.20;;;5.80;54.00;;;;;;4986090;28;20509;-82
2021/01/25 01:10:59;;;;;;;0.50;0.20;;;5.70;55.20;;;;;;4975985;28;20409;-82
2021/01/25 01:13:25;;;;;;;0.30;0.20;;;5.60;55.90;;;;;;4976719;28;20399;-82
2021/01/25 01:15:51;;;;;;;0.30;0.20;;;5.60;55.90;;;;;;4985637;28;20538;-82
2021/01/25 01:18:17;;;;;;;0.22;0.10;;;5.60;56.20;;;;;;4991801;28;20407;-82
2021/01/25 01:20:43;;;;;;;0.20;0.10;;;5.50;56.10;;;;;;4979247;28;20404;-83
2021/01/25 01:23:09;;;;;;;0.47;0.20;;;5.50;56.60;;;;;;4976539;28;20896;-82
2021/01/25 01:25:36;;;;;;;0.40;0.20;;;5.40;56.70;;;;;;4973451;28;20408;-82
2021/01/25 01:28:02;;;;;;;0.47;0.10;;;5.50;56.90;;;;;;4974344;28;20415;-83
2021/01/25 01:30:27;;;;;;;0.50;0.30;;;5.50;56.80;;;;;;4972353;28;20416;-82
2021/01/25 01:32:53;;;;;;;0.22;0.10;;;5.50;57.00;;;;;;4976456;28;20455;-82
2021/01/25 01:35:19;;;;;;;0.77;0.10;;;5.50;57.60;;;;;;4977716;28;20408;-82
2021/01/25 01:37:45;;;;;;;0.60;0.32;;;5.50;57.60;;;;;;4982283;28;20736;-82
2021/01/25 01:40:13;;;;;;;0.57;0.20;;;5.60;57.80;;;;;;4977378;28;20455;-82
2021/01/25 01:42:40;;;;;;;0.75;0.20;;;5.50;58.20;;;;;;4986272;28;20408;-82
2021/01/25 01:45:08;;;;;;;0.60;0.20;;;5.40;58.70;;;;;;4982720;28;20460;-81
2021/01/25 01:47:35;;;;;;;0.25;0.10;;;5.40;59.30;;;;;;4973824;28;20428;-82
2021/01/25 01:50:01;;;;;;;0.30;0.10;;;5.40;60.20;;;;;;4984013;28;20939;-82
2021/01/25 01:52:27;;;;;;;0.57;0.10;;;5.30;60.80;;;;;;4978931;28;20412;-82
2021/01/25 01:54:58;;;;;;;0.35;0.10;;;5.30;61.00;;;;;;4986007;28;20467;-83
2021/01/25 01:57:24;;;;;;;0.40;0.10;;;5.30;61.00;;;;;;4974917;28;20412;-82
2021/01/25 01:59:51;;;;;;;0.20;0.10;;;5.20;62.00;;;;;;4969929;28;20899;-83
2021/01/25 02:02:17;;;;;;;0.40;0.10;;;5.30;61.80;;;;;;4971380;28;20465;-82
2021/01/25 02:04:44;;;;;;;0.30;0.10;;;5.10;63.00;;;;;;4995421;28;20394;-82
2021/01/25 02:07:12;;;;;;;0.47;0.10;;;5.10;63.40;;;;;;4983269;28;20394;-82
2021/01/25 02:09:40;;;;;;;0.30;0.10;;;5.00;64.10;;;;;;4976401;28;20454;-82
2021/01/25 02:12:07;;;;;;;0.30;0.10;;;4.90;64.70;;;;;;4981837;28;20448;-82
2021/01/25 02:14:34;;;;;;;0.25;0.10;;;4.90;65.00;;;;;;4980043;28;20393;-82
2021/01/25 02:17:01;;;;;;;0.20;0.10;;;5.00;64.90;;;;;;4979568;28;20427;-82
2021/01/25 02:19:33;;;;;;;0.22;0.10;;;5.00;65.10;;;;;;4971683;28;20935;-82
2021/01/25 02:22:12;;;;;;;0.38;0.10;;;5.00;65.60;;;;;;4985978;28;20457;-82
2021/01/25 02:24:42;;;;;;;0.50;0.20;;;4.90;65.80;;;;;;4977899;28;20469;-82
2021/01/25 02:27:30;;;;;;;0.60;0.17;;;4.90;66.50;;;;;;4976064;28;20450;-82
2021/01/25 02:29:57;;;;;;;1.45;0.10;;;4.90;67.10;;;;;;4976349;28;20625;-82
2021/01/25 02:32:24;;;;;;;0.30;0.10;;;4.90;67.70;;;;;;4973551;28;20415;-82
2021/01/25 02:34:50;;;;;;;0.52;0.10;;;4.90;68.20;;;;;;4974959;28;20475;-83
2021/01/25 02:37:17;;;;;;;0.22;0.10;;;4.80;69.20;;;;;;4975287;28;20407;-83
2021/01/25 02:39:44;;;;;;;0.60;0.10;;;4.90;69.30;;;;;;4976548;28;20392;-82
2021/01/25 02:42:10;;;;;;;0.38;0.20;;;4.80;69.60;;;;;;4979571;28;20410;-82
2021/01/25 02:44:39;;;;;;;0.63;0.20;;;4.70;70.30;;;;;;4979932;28;20823;-83
2021/01/25 02:47:05;;;;;;;0.50;0.20;;;4.60;70.60;;;;;;4968997;28;20400;-83
2021/01/25 02:49:31;;;;;;;0.60;0.20;;;4.70;70.90;;;;;;4987940;28;20824;-82
2021/01/25 02:51:57;;;;;;;0.73;0.10;;;4.60;71.10;;;;;;4987010;28;20411;-83
2021/01/25 02:54:23;;;;;;;0.82;0.10;;;4.60;71.50;;;;;;4974827;28;20410;-82
2021/01/25 02:56:49;;;;;;;0.70;0.17;;;4.60;73.80;;;;;;4971955;28;20394;-83
2021/01/25 02:59:17;;;;;;;0.52;0.20;;;4.50;72.00;;;;;;4974853;28;20398;-83
2021/01/25 03:01:46;;;;;;;0.90;0.10;;;4.50;72.60;;;;;;4979423;28;20443;-83
2021/01/25 03:04:14;;;;;;;1.00;0.20;;;4.50;72.90;;;;;;4981177;28;20456;-83
2021/01/25 03:06:41;;;;;;;0.80;0.20;;;4.60;73.20;;;;;;4978128;28;20443;-83
2021/01/25 03:09:07;;;;;;;2.25;0.30;;;4.60;73.00;;;;;;4972345;28;20420;-83
2021/01/25 03:11:33;;;;;;;2.78;0.47;;;4.50;73.40;;;;;;4976388;28;20408;-82
2021/01/25 03:14:06;;;;;;;1.13;0.22;;;4.40;74.20;;;;;;4977762;28;20400;-82
2021/01/25 03:16:32;;;;;;;1.23;0.20;;;4.50;74.60;;;;;;4989614;28;20554;-82
2021/01/25 03:18:58;;;;;;;0.60;0.20;;;4.40;74.80;;;;;;4979964;28;20828;-82
2021/01/25 03:21:24;;;;;;;0.90;0.20;;;4.30;75.50;;;;;;4973409;28;20418;-83
2021/01/25 03:23:51;;;;;;;0.95;0.35;;;4.40;75.20;;;;;;4981989;28;20765;-83
2021/01/25 03:26:17;;;;;;;0.95;0.10;;;4.40;75.60;;;;;;4974497;28;20496;-82
2021/01/25 03:28:43;;;;;;;0.20;0.10;;;4.40;76.30;;;;;;4974100;28;20507;-82
2021/01/25 03:31:09;;;;;;;0.67;0.20;;;4.30;77.10;;;;;;4973668;28;20401;-82
2021/01/25 03:33:35;;;;;;;0.50;0.20;;;4.30;76.60;;;;;;4975335;28;20934;-83
2021/01/25 03:36:02;;;;;;;1.67;0.35;;;;;;;;;;4974820;28;21086;-82
2021/01/25 03:38:27;;;;;;;0.50;0.20;;;4.20;76.50;;;;;;4974024;28;20411;-82
2021/01/25 03:40:53;;;;;;;0.60;0.32;;;4.20;76.50;;;;;;4989635;28;20399;-81
2021/01/25 03:43:19;;;;;;;0.77;0.10;;;4.30;77.40;;;;;;4979760;28;20440;-82
2021/01/25 03:45:45;;;;;;;0.50;0.28;;;4.30;78.70;;;;;;4977003;28;20499;-82
2021/01/25 03:48:11;;;;;;;0.60;0.20;;;4.20;78.80;;;;;;4991160;28;20408;-82
2021/01/25 03:50:38;;;;;;;1.20;0.20;;;4.20;79.50;;;;;;4977653;28;20435;-82
2021/01/25 03:53:04;;;;;;;1.00;0.20;;;4.20;78.50;;;;;;4984532;28;20894;-82
2021/01/25 03:55:30;;;;;;;0.65;0.20;;;4.20;78.50;;;;;;4991817;28;20407;-81
2021/01/25 03:57:56;;;;;;;0.30;0.10;;;4.20;78.60;;;;;;4985616;28;20394;-83
2021/01/25 04:00:23;;;;;;;0.40;0.30;;;4.30;79.40;;;;;;4977098;28;20487;-82
2021/01/25 04:02:49;;;;;;;0.70;0.22;;;4.30;78.80;;;;;;4974458;28;20470;-83
2021/01/25 04:05:15;;;;;;;1.40;0.30;;;4.20;79.80;;;;;;4979588;28;20890;-81
2021/01/25 04:07:41;;;;;;;0.68;0.30;;;4.00;81.10;;;;;;4975996;28;20424;-82
2021/01/25 04:10:09;;;;;;;0.63;0.20;;;4.10;80.10;;;;;;4975211;28;20462;-82
2021/01/25 04:12:34;;;;;;;0.50;0.20;;;4.00;80.70;;;;;;4974194;28;20456;-81
2021/01/25 04:15:00;;;;;;;1.27;0.20;;;4.10;79.90;;;;;;4975182;28;20491;-82
2021/01/25 04:17:26;;;;;;;1.17;0.40;;;4.10;80.30;;;;;;4974470;28;20432;-82
2021/01/25 04:19:52;;;;;;;1.02;0.35;;;4.20;79.90;;;;;;4982757;28;20403;-82
2021/01/25 04:22:18;;;;;;;1.38;0.35;;;4.20;79.80;;;;;;4973638;28;20491;-82
2021/01/25 04:24:44;;;;;;;0.80;0.45;;;4.20;80.00;;;;;;4990195;28;20484;-82
2021/01/25 04:27:13;;;;;;;0.88;0.20;;;4.30;79.90;;;;;;4974000;28;20483;-82
2021/01/25 04:29:39;;;;;;;0.50;0.20;;;4.30;79.70;;;;;;4973856;28;20420;-82
2021/01/25 04:32:05;;;;;;;0.70;0.30;;;4.40;79.50;;;;;;4979067;28;20455;-82
2021/01/25 04:34:33;;;;;;;0.80;0.30;;;4.40;79.50;;;;;;4973835;28;20432;-81
2021/01/25 04:36:59;;;;;;;1.00;0.28;;;4.30;80.40;;;;;;4979533;28;20391;-82
2021/01/25 04:39:25;;;;;;;0.38;0.20;;;4.30;80.30;;;;;;4985141;28;20402;-82
2021/01/25 04:41:51;;;;;;;1.20;0.30;;;4.20;80.40;;;;;;4975634;28;20409;-82
2021/01/25 04:44:22;;;;;;;0.82;0.30;;;4.20;80.80;;;;;;4982497;28;20481;-82
2021/01/25 04:46:48;;;;;;;0.95;0.20;;;4.20;80.80;;;;;;4986481;28;20406;-82
2021/01/25 04:49:14;;;;;;;1.10;0.20;;;4.20;80.60;;;;;;4971130;28;20431;-82
2021/01/25 04:51:41;;;;;;;0.90;0.10;;;4.10;81.10;;;;;;4973804;28;20404;-82
2021/01/25 04:54:07;;;;;;;1.10;0.17;;;4.10;81.30;;;;;;4973419;28;20487;-82
2021/01/25 04:56:35;;;;;;;0.52;0.20;;;4.20;81.00;;;;;;4976695;28;20412;-82
2021/01/25 04:59:01;;;;;;;1.10;0.10;;;4.20;80.60;;;;;;4981962;28;20892;-82
2021/01/25 05:01:28;;;;;;;1.20;0.22;;;4.30;80.20;;;;;;4974251;28;20495;-82
2021/01/25 05:03:53;;;;;;;0.95;0.22;;;4.10;80.80;;;;;;4974373;28;20426;-79
2021/01/25 05:06:20;;;;;;;0.52;0.25;;;4.20;80.50;;;;;;4978528;28;20491;-82
2021/01/25 05:08:46;;;;;;;1.08;0.40;;;4.10;81.30;;;;;;4978569;28;20474;-82
2021/01/25 05:11:13;;;;;;;0.75;0.30;;;4.10;81.60;;;;;;4992434;28;20408;-82
2021/01/25 05:13:39;;;;;;;1.20;0.20;;;4.10;81.20;;;;;;4982312;28;20414;-82
2021/01/25 05:16:18;;;;;;;0.70;0.20;;;4.10;81.30;;;;;;4992995;28;20747;-81
2021/01/25 05:18:44;;;;;;;0.85;0.20;;;4.10;80.80;;;;;;4972415;28;20824;-82
2021/01/25 05:21:11;;;;;;;0.20;0.20;;;4.10;80.50;;;;;;4984469;28;20418;-82
2021/01/25 05:23:38;;;;;;;0.22;0.20;;;4.00;81.20;;;;;;4976954;28;20807;-82
2021/01/25 05:26:07;;;;;;;0.28;0.20;;;;;;;;;;4981865;28;20441;-82
2021/01/25 05:28:40;;;;;;;0.40;0.20;;;;;;;;;;4977138;28;20882;-81
2021/01/25 05:31:17;;;;;;;0.32;0.20;;;;;;;;;;4977640;28;20451;-81
2021/01/25 05:33:43;;;;;;;0.47;0.30;;;4.00;82.10;;;;;;4982421;28;20423;-82
2021/01/25 05:36:10;;;;;;;1.90;0.40;;;3.80;84.40;;;;;;4981112;28;20412;-83
2021/01/25 05:38:35;;;;;;;1.30;0.50;;;3.70;85.00;;;;;;4990491;28;20405;-82
2021/01/25 05:41:05;;;;;;;1.17;0.50;;;3.80;84.10;;;;;;4976418;28;20414;-77
2021/01/25 05:43:33;;;;;;;2.00;0.68;;;3.80;84.30;;;;;;4988423;28;20448;-82
2021/01/25 05:46:06;;;;;;;2.17;1.20;;;3.60;85.60;;;;;;4989576;28;20408;-81
2021/01/25 05:48:32;;;;;;;1.90;0.70;;;3.40;86.40;;;;;;4974367;28;20486;-83
2021/01/25 05:51:11;;;;;;;1.30;0.60;;;3.50;86.10;;;;;;4975014;28;20398;-83
2021/01/25 05:53:38;;;;;;;2.13;0.80;;;3.40;86.10;;;;;;4976418;28;20464;-83
2021/01/25 05:56:06;;;;;;;2.78;1.00;;;3.40;85.70;;;;;;4975921;28;20408;-82
2021/01/25 05:58:32;;;;;;;3.13;1.27;;;3.40;85.80;;;;;;4976946;28;20468;-82
2021/01/25 06:00:59;;;;;;;2.78;1.10;;;3.40;86.30;;;;;;4997818;28;20763;-82
2021/01/25 06:03:27;;;;;;;2.28;1.20;;;3.40;86.90;;;;;;4990036;28;20411;-82
2021/01/25 06:05:54;;;;;;;2.35;1.00;;;3.40;86.80;;;;;;4973162;28;20462;-82
2021/01/25 06:08:25;;;;;;;2.05;0.90;;;;;;;;;;4991709;28;20455;-82
2021/01/25 06:10:59;;;;;;;3.15;1.48;;;;;;;;;;4975864;28;20768;-82
2021/01/25 06:13:26;;;;;;;2.80;1.25;;;;;;;;;;4975806;28;20892;-82
2021/01/25 06:15:53;;;;;;;2.33;0.88;;;;;;;;;;4976700;28;20784;-82
2021/01/25 06:18:21;;;;;;;2.90;1.17;;;3.30;91.70;;;;;;4977084;28;20420;-82
2021/01/25 06:20:50;;;;;;;2.85;1.33;;;3.30;92.00;;;;;;4977000;28;20408;-82
2021/01/25 06:23:17;;;;;;;2.28;1.10;;;3.20;92.60;;;;;;4981225;28;20533;-82
2021/01/25 06:25:44;;;;;;;2.63;1.10;;;;;;;;;;4983340;28;20487;-80
2021/01/25 06:28:14;;;;;;;3.27;1.40;;;;;;;;;;4976540;28;20408;-82
2021/01/25 06:30:42;;;;;;;3.38;1.40;;;;;;;;;;4976729;28;20443;-82
2021/01/25 06:33:09;;;;;;;1.13;0.63;;;;;;;;;;4978796;28;20408;-82
2021/01/25 06:35:37;;;;;;;0.90;0.38;;;;;;;;;;4977248;28;20411;-81
2021/01/25 06:38:03;;;;;;;0.60;0.30;;;;;;;;;;4978336;28;20404;-81
2021/01/25 06:40:30;;;;;;;0.80;0.40;;;;;;;;;;4975176;28;20441;-81
2021/01/25 06:42:57;;;;;;;1.33;0.70;;;;;;;;;;4972537;28;20404;-81
2021/01/25 06:45:24;;;;;;;2.17;0.60;;;;;;;;;;4976597;28;20842;-81
2021/01/25 06:47:51;;;;;;;1.63;0.60;;;2.90;89.80;;;;;;4978317;28;20404;-81
2021/01/25 06:50:19;;;;;;;1.40;0.70;;;2.70;90.60;;;;;;4983892;28;20424;-81
2021/01/25 06:52:49;;;;;;;0.97;0.73;;;2.90;90.20;;;;;;4975266;28;20415;-81
2021/01/25 06:55:16;;;;;;;1.10;0.60;;;2.90;90.00;;;;;;4976040;28;20419;-82
2021/01/25 06:57:45;;;;;;;1.33;0.50;;;2.90;89.60;;;;;;4978561;28;20470;-81
2021/01/25 07:00:14;;;;;;;2.30;0.40;;;2.70;90.20;;;;;;4990578;28;20428;-81
2021/01/25 07:02:52;;;;;;;0.77;0.30;;;2.90;90.10;;;;;;4958271;28;20419;-82
2021/01/25 07:05:21;;;;;;;0.90;0.40;;;2.90;90.20;;;;;;4976484;28;20890;-82
2021/01/25 07:07:47;;;;;;;0.82;0.52;;;2.90;90.30;;;;;;4976636;28;20435;-82
2021/01/25 07:10:15;;;;;;;2.28;1.13;;;2.70;90.90;;;;;;4975573;28;20511;-83
2021/01/25 07:12:42;;;;;;;3.43;1.60;;;2.60;91.00;;;;;;4975130;28;20476;-81
2021/01/25 07:15:10;;;;;;;2.55;1.90;;;2.50;91.10;;;;;;4974787;28;20451;-82
2021/01/25 07:17:37;;;;;;;3.03;2.00;;;2.50;91.20;;;;;;4972760;28;20820;-82
2021/01/25 07:20:04;;;;;;;3.78;1.80;;;2.50;91.00;;;;;;4976144;28;20423;-82
2021/01/25 07:22:34;;;;;;;2.00;0.82;;;2.60;91.10;;;;;;4974734;28;20400;-82
2021/01/25 07:25:00;;;;;;;1.15;0.73;;;2.70;90.80;;;;;;4990862;28;20548;-82
2021/01/25 07:27:33;;;;;;;0.87;0.50;;;2.80;90.60;;;;;;4974077;28;20844;-80
2021/01/25 07:29:59;;;;;;;1.52;0.65;;;3.00;90.20;;;;;;4991200;28;20428;-82
2021/01/25 07:32:25;;;;;;;1.43;0.50;;;3.00;90.40;;;;;;4975380;28;20408;-82
2021/01/25 07:34:55;;;;;;;1.13;0.60;;;2.90;90.20;;;;;;4983499;28;20423;-82
2021/01/25 07:37:20;;;;;;;2.50;1.02;;;2.80;90.10;;;;;;4975756;28;20400;-82
2021/01/25 07:39:47;;;;;;;2.03;1.13;;;2.90;89.70;;;;;;4972188;28;20924;-82
2021/01/25 07:42:13;;;;;;;0.98;0.60;;;3.00;88.80;;;;;;4972588;28;20408;-82
2021/01/25 07:44:39;;;;;;;1.50;0.60;;;3.10;87.60;;;;;;4985563;28;20413;-82
2021/01/25 07:47:05;;;;;;;2.53;0.50;;;3.10;88.20;;;;;;4978287;28;20919;-81
2021/01/25 07:49:31;;;;;;;2.10;0.55;;;3.20;87.20;;;;;;4994677;28;20459;-82
2021/01/25 07:51:58;;;;;;;0.43;0.30;;;3.20;86.70;;;;;;4975543;28;20396;-82
2021/01/25 07:54:29;;;;;;;1.45;0.50;;;;;;;;;;4979114;28;20448;-83
2021/01/25 07:56:59;;;;;;;2.08;1.00;;;;;;;;;;4974366;28;20463;-83
2021/01/25 07:59:32;;;;;;;1.60;1.00;;;;;;;;;;4973917;28;20472;-82
2021/01/25 08:02:00;;;;;;;1.48;0.88;;;;;;;;;;4977824;28;20408;-83
2021/01/25 08:04:27;;;;;;;5.00;1.92;;;;;;;;;;4972716;28;20475;-83
2021/01/25 08:06:56;;;;;;;2.63;1.30;;;;;;;;;;4977677;28;20416;-82
2021/01/25 08:09:23;;;;;;;2.47;1.20;;;3.60;84.60;;;;;;4973524;28;20469;-82
2021/01/25 08:11:50;;;;;;;3.43;0.73;;;4.10;86.60;;;;;;4980151;28;20494;-83
2021/01/25 08:14:23;;;;;;;1.30;0.50;;;4.40;85.00;;;;;;4978728;28;20892;-83
2021/01/25 08:16:55;;;;;;;0.80;0.50;;;4.70;81.80;;;;;;4967317;28;20478;-83
2021/01/25 08:19:24;;;;;;;1.08;0.60;;;5.10;80.70;;;;;;4974422;28;20445;-82
2021/01/25 08:21:56;;;;;;;1.40;0.60;;;5.10;83.40;;;;;;4974269;28;20464;-82
2021/01/25 08:24:22;;;;;;;1.00;0.40;;;5.10;80.40;;;;;;4973739;28;20498;-78
2021/01/25 08:26:49;;;;;;;0.63;0.50;;;5.30;77.20;;;;;;4973357;28;20412;-82
2021/01/25 08:29:22;;;;;;;0.90;0.50;;;5.50;78.60;;;;;;4978128;28;20452;-82
2021/01/25 08:31:48;;;;;;;1.20;0.40;;;5.60;74.80;;;;;;4973529;28;20408;-83
2021/01/25 08:34:24;;;;;;;0.70;0.40;;;5.70;74.60;;;;;;4973440;28;20756;-82
2021/01/25 08:36:58;;;;;;;0.85;0.80;;;5.80;78.10;;;;;;4974135;28;20416;-83
2021/01/25 08:39:31;;;;;;;1.90;0.60;;;5.80;80.00;;;;;;4986909;28;20485;-83
2021/01/25 08:41:58;;;;;;;1.30;0.60;;;5.80;80.10;;;;;;4990353;28;20406;-83
2021/01/25 08:44:25;;;;;;;0.80;0.63;;;5.80;81.10;;;;;;4983327;28;20491;-83
2021/01/25 08:46:51;;;;;;;1.17;0.50;;;5.90;81.20;;;;;;4978786;28;20406;-82
2021/01/25 08:49:20;;;;;;;1.00;0.60;;;5.60;82.10;;;;;;4986175;28;20418;-82
2021/01/25 08:51:57;;;;;;;2.00;0.60;;;5.80;81.80;;;;;;4985461;28;20408;-83
2021/01/25 08:54:25;;;;;;;1.30;0.80;;;5.80;82.00;;;;;;4981550;28;20917;-82
2021/01/25 08:56:51;;;;;;;1.55;0.73;;;5.90;82.40;;;;;;4984876;28;20407;-82
2021/01/25 08:59:29;;;;;;;1.95;0.80;;;6.10;81.20;;;;;;4976752;28;20488;-82
2021/01/25 09:01:55;;;;;;;1.60;0.60;;;6.40;78.80;;;;;;4979235;28;20501;-82
2021/01/25 09:04:21;;;;;;;1.40;0.60;;;6.40;79.40;;;;;;4976895;28;20994;-83
2021/01/25 09:06:52;;;;;;;1.27;0.70;;;6.10;76.50;;;;;;4976785;28;20416;-83
2021/01/25 09:09:18;;;;;;;1.27;0.63;;;6.50;77.70;;;;;;4975797;28;20416;-82
2021/01/25 09:11:44;;;;;;;0.75;0.50;;;6.50;75.30;;;;;;4986775;28;20407;-84
2021/01/25 09:14:11;;;;;;;0.80;0.50;;;6.50;76.50;;;;;;4973570;28;20510;-82
2021/01/25 09:16:37;;;;;;;1.02;0.40;;;6.70;75.80;;;;;;4976339;28;20412;-83
2021/01/25 09:19:03;;;;;;;0.98;0.50;;;6.90;76.30;;;;;;4978253;28;20408;-82
2021/01/25 09:21:29;;;;;;;0.30;0.30;;;7.10;72.50;;;;;;4982916;28;20406;-83
2021/01/25 09:23:55;;;;;;;0.45;0.30;;;7.40;63.50;;;;;;4975501;28;20404;-83
2021/01/25 09:26:21;;;;;;;0.60;0.38;;;7.60;63.00;;;;;;4972415;28;20464;-83
2021/01/25 09:28:47;;;;;;;2.10;0.30;;;7.80;62.90;;;;;;4981909;28;20412;-83
2021/01/25 09:31:14;;;;;;;0.50;0.30;;;7.70;62.50;;;;;;4984113;28;20408;-82
2021/01/25 09:33:41;;;;;;;0.50;0.40;;;7.80;62.80;;;;;;4977328;28;20401;-83
2021/01/25 09:36:07;;;;;;;0.57;0.30;;;7.90;62.40;;;;;;4987382;28;20489;-83
2021/01/25 09:38:33;;;;;;;0.30;0.22;;;8.00;57.30;;;;;;4994994;28;20493;-83
2021/01/25 09:40:59;;;;;;;0.77;0.20;;;8.20;54.10;;;;;;4981634;28;20491;-82
2021/01/25 09:43:24;;;;;;;0.45;0.20;;;8.40;52.50;;;;;;4975503;28;20406;-83
2021/01/25 09:45:51;;;;;;;0.30;0.30;;;8.70;50.20;;;;;;4975784;28;20400;-82
2021/01/25 09:48:17;;;;;;;0.90;0.30;;;8.70;48.90;;;;;;4975919;28;20488;-82
2021/01/25 09:50:47;;;;;;;1.57;0.60;;;8.80;49.30;;;;;;4977136;28;20515;-82
2021/01/25 09:53:13;;;;;;;1.00;0.38;;;8.80;47.60;;;;;;4993025;28;20418;-82
2021/01/25 09:55:39;;;;;;;0.70;0.20;;;8.70;48.00;;;;;;4992541;28;20402;-82
2021/01/25 09:58:05;;;;;;;0.50;0.20;;;8.80;48.00;;;;;;4985851;28;20413;-82
2021/01/25 10:00:31;;;;;;;1.00;0.20;;;8.90;46.80;;;;;;4975409;28;20490;-78
2021/01/25 10:02:57;;;;;;;1.30;0.20;;;8.90;46.40;;;;;;4976995;28;20441;-82
2021/01/25 10:05:23;;;;;;;0.80;0.50;;;9.00;46.70;;;;;;4975099;28;20416;-81
2021/01/25 10:07:49;;;;;;;0.85;0.20;;;9.20;46.10;;;;;;4976095;28;20487;-81
2021/01/25 10:10:16;;;;;;;1.13;0.30;;;9.30;44.50;;;;;;4978640;28;21008;-81
2021/01/25 10:12:43;;;;;;;1.20;0.50;;;9.40;46.30;;;;;;4971960;28;20408;-81
2021/01/25 10:15:12;;;;;;;0.52;0.20;;;9.40;45.70;;;;;;4976496;28;20396;-81
2021/01/25 10:17:38;;;;;;;0.40;0.20;;;9.50;44.80;;;;;;4975061;28;20455;-82
2021/01/25 10:20:06;;;;;;;0.90;0.20;;;9.50;43.60;;;;;;4972829;28;20895;-81
2021/01/25 10:22:32;;;;;;;1.70;0.10;;;9.50;42.00;;;;;;4976267;28;20508;-83
2021/01/25 10:24:59;;;;;;;0.60;0.10;;;9.60;42.10;;;;;;4973828;28;20404;-82
2021/01/25 10:27:26;;;;;;;0.28;0.13;;;9.60;43.00;;;;;;4986428;28;20412;-82
2021/01/25 10:29:51;;;;;;;2.00;0.30;;;9.50;41.90;;;;;;4991349;28;20927;-83
2021/01/25 10:32:19;;;;;;;0.50;0.27;;;9.60;43.30;;;;;;4976630;28;20404;-83
2021/01/25 10:34:45;;;;;;;0.30;0.13;;;9.70;42.60;;;;;;4982742;28;20412;-83
2021/01/25 10:37:11;;;;;;;0.30;0.10;;;9.60;44.00;;;;;;4984671;28;20848;-83
2021/01/25 10:39:38;;;;;;;0.60;0.10;;;9.60;42.60;;;;;;4972143;28;20546;-81
2021/01/25 10:42:05;;;;;;;1.10;0.20;;;9.60;41.90;;;;;;4975148;28;20491;-83
2021/01/25 10:44:30;;;;;;;0.90;0.20;;;9.70;38.70;;;;;;4981409;28;20412;-83
2021/01/25 10:46:56;;;;;;;1.00;0.20;;;9.70;41.20;;;;;;4973176;28;20392;-82
2021/01/25 10:49:22;;;;;;;0.22;0.10;;;9.80;40.00;;;;;;4981892;28;20454;-83
2021/01/25 10:51:48;;;;;;;0.13;0.10;;;9.70;40.40;;;;;;4980567;28;20438;-83
2021/01/25 10:54:14;;;;;;;5.30;0.30;;;9.80;38.90;;;;;;4980962;28;20525;-83
2021/01/25 10:56:40;;;;;;;0.63;0.20;;;9.90;40.20;;;;;;4976514;28;20415;-83
2021/01/25 10:59:07;;;;;;;0.90;0.20;;;9.90;40.00;;;;;;4991415;28;20394;-83
2021/01/25 11:01:33;;;;;;;1.00;0.20;;;9.90;38.70;;;;;;4974613;28;20408;-83
2021/01/25 11:03:59;;;;;;;0.20;0.20;;;10.00;37.90;;;;;;4974602;28;20455;-83
2021/01/25 11:06:25;;;;;;;0.50;0.10;;;10.00;38.70;;;;;;4977217;28;20410;-83
2021/01/25 11:08:51;;;;;;;0.13;0.10;;;10.00;37.40;;;;;;4977238;28;20447;-83
2021/01/25 11:11:18;;;;;;;0.40;0.10;;;9.90;38.40;;;;;;4974897;28;20427;-83
2021/01/25 11:13:44;;;;;;;0.30;0.15;;;9.90;37.80;;;;;;4975318;28;20487;-83
2021/01/25 11:16:10;;;;;;;0.57;0.30;;;9.90;37.80;;;;;;4990454;28;20496;-84
2021/01/25 11:18:36;;;;;;;1.33;0.10;;;10.00;36.50;;;;;;4974378;28;20409;-83
2021/01/25 11:21:02;;;;;;;0.63;0.10;;;10.00;38.60;;;;;;4978120;28;20474;-83
2021/01/25 11:23:30;;;;;;;0.43;0.22;;;10.10;38.00;;;;;;4975443;28;20411;-83
2021/01/25 11:25:56;;;;;;;0.70;0.10;;;10.20;36.20;;;;;;4976973;28;20398;-83
2021/01/25 11:28:23;;;;;;;0.50;0.10;;;10.30;36.40;;;;;;4977890;28;20969;-83
2021/01/25 11:30:49;;;;;;;0.35;0.20;;;10.30;35.60;;;;;;4989553;28;20485;-78
2021/01/25 11:33:16;;;;;;;0.57;0.20;;;10.30;36.40;;;;;;4972454;28;20447;-83
2021/01/25 11:35:42;;;;;;;0.70;0.10;;;10.40;36.80;;;;;;4979048;28;20437;-84
2021/01/25 11:38:08;;;;;;;0.40;0.10;;;10.50;36.70;;;;;;4986738;28;20440;-83
2021/01/25 11:40:34;;;;;;;1.20;0.10;;;10.60;35.60;;;;;;4978065;28;20466;-82
2021/01/25 11:43:00;;;;;;;0.20;0.10;;;10.70;36.00;;;;;;4977335;28;20404;-82
2021/01/25 11:45:25;;;;;;;1.45;0.10;;;10.80;36.10;;;;;;4987697;28;20405;-83
2021/01/25 11:47:51;;;;;;;0.20;0.20;;;10.80;35.00;;;;;;4979798;28;20824;-83
2021/01/25 11:50:18;;;;;;;0.60;0.25;;;10.90;35.70;;;;;;4986357;28;20492;-83
2021/01/25 11:52:44;;;;;;;0.27;0.10;;;10.90;35.80;;;;;;4985395;28;20525;-83
2021/01/25 11:55:11;;;;;;;1.35;0.57;;;11.00;34.90;;;;;;4980388;28;20404;-84
2021/01/25 11:57:37;;;;;;;0.35;0.10;;;10.70;44.10;;;;;;4981385;28;20404;-83
2021/01/25 12:00:04;;;;;;;0.30;0.10;;;10.70;35.40;;;;;;4989583;28;20400;-83
2021/01/25 12:02:30;;;;;;;0.25;0.10;;;10.80;35.90;;;;;;4986783;28;20487;-82
2021/01/25 12:04:56;;;;;;;0.20;0.10;;;10.90;36.50;;;;;;4972480;28;20864;-81
2021/01/25 12:07:23;;;;;;;0.20;0.10;;;11.10;33.10;;;;;;4978232;28;20497;-81
2021/01/25 12:09:49;;;;;;;0.22;0.00;;;11.30;33.70;;;;;;4963990;28;20478;-81
2021/01/25 12:12:15;;;;;;;0.77;0.50;;;11.40;33.10;;;;;;4976618;28;20403;-83
2021/01/25 12:14:41;;;;;;;1.13;0.52;;;11.40;38.70;;;;;;4968292;28;20509;-82
2021/01/25 12:17:07;;;;;;;1.00;0.70;;;11.30;41.70;;;;;;4964260;28;20896;-81
2021/01/25 12:19:33;;;;;;;0.70;0.40;;;11.20;42.60;;;;;;4960089;28;20503;-82
2021/01/25 12:21:58;;;;;;;0.50;0.30;;;11.20;40.50;;;;;;4968442;28;20396;-82
2021/01/25 12:24:25;;;;;;;0.40;0.20;;;11.10;40.00;;;;;;4962006;28;20412;-83
2021/01/25 12:26:51;;;;;;;0.22;0.10;;;11.20;37.00;;;;;;4975779;28;20455;-81
2021/01/25 12:29:17;;;;;;;0.03;0.00;;;11.50;32.60;;;;;;4961465;28;20410;-82
2021/01/25 12:31:43;;;;;;;0.15;0.00;;;;;;;;;;4964116;28;20397;-81
2021/01/25 12:34:09;;;;;;;0.50;0.00;;;;;;;;;;4962590;28;20413;-82
2021/01/25 12:36:36;;;;;;;1.45;0.10;;;;;;;;;;4963315;28;20416;-81
2021/01/25 12:39:03;;;;;;;0.13;0.10;;;;;;;;;;4963976;28;20410;-83
2021/01/25 12:41:30;;;;;;;0.00;0.00;;;;;;;;;;4964117;28;20439;-82
2021/01/25 12:43:56;;;;;;;0.30;0.20;;;;;;;;;;4977466;28;20407;-83
2021/01/25 12:46:23;;;;;;;0.35;0.00;;;;;;;;;;4962746;28;20419;-83
2021/01/25 12:48:49;;;;;;;0.80;0.00;;;;;;;;;;4963778;28;20495;-83
2021/01/25 12:51:15;;;;;;;0.32;0.17;;;12.20;31.40;;;;;;4963830;28;20481;-84
2021/01/25 12:53:41;;;;;;;0.00;0.00;;;12.40;29.20;;;;;;4963503;28;20398;-84
2021/01/25 12:56:07;;;;;;;0.32;0.00;;;12.30;29.90;;;;;;4963386;28;20408;-82
2021/01/25 12:58:33;;;;;;;0.10;0.00;;;12.40;28.40;;;;;;4963066;28;20400;-82
2021/01/25 13:01:00;;;;;;;0.95;0.10;;;;;;;;;;4962799;28;20946;-83
2021/01/25 13:03:26;;;;;;;0.35;0.00;;;;;;;;;;4961222;28;20929;-83